createdAt,value
2022-08-17T00:02:25.274Z,96706.06
2022-08-17T00:05:31.365Z,96706.41
2022-08-17T00:08:36.765Z,96704.25
2022-08-17T00:11:42.994Z,96707.06
2022-08-17T00:15:05.400Z,96702.31
2022-08-17T00:18:58.160Z,96706.41
2022-08-17T00:21:56.381Z,96696.56
2022-08-17T00:24:50.999Z,96698.63
2022-08-17T00:27:52.499Z,96694.94
2022-08-17T00:30:55.593Z,96688.66
2022-08-17T00:33:57.714Z,96686.91
2022-08-17T00:36:59.174Z,96684.06
2022-08-17T00:40:00.861Z,96681.09
2022-08-17T00:43:39.803Z,96678.69
2022-08-17T00:46:43.521Z,96689.75
2022-08-17T00:49:45.042Z,96680.00
2022-08-17T00:52:55.970Z,96680.81
2022-08-17T00:56:01.324Z,96687.00
2022-08-17T00:59:05.879Z,96692.09
2022-08-17T01:02:10.566Z,96691.72
2022-08-17T01:05:18.492Z,96681.41
2022-08-17T01:08:24.811Z,96681.22
2022-08-17T01:11:27.720Z,96682.88
2022-08-17T01:14:29.194Z,96682.72
2022-08-17T01:17:31.015Z,96686.13
2022-08-17T01:20:41.883Z,96683.69
2022-08-17T01:23:49.656Z,96669.22
2022-08-17T01:26:51.446Z,96680.25
2022-08-17T01:29:58.568Z,96680.34
2022-08-17T01:33:00.087Z,96690.47
2022-08-17T01:36:01.934Z,96683.75
2022-08-17T01:39:06.643Z,96675.88
2022-08-17T01:42:13.765Z,96678.19
2022-08-17T01:45:19.891Z,96684.91
2022-08-17T01:48:22.750Z,96691.91
2022-08-17T01:51:33.260Z,96684.09
2022-08-17T01:54:36.200Z,96686.97
2022-08-17T01:57:37.778Z,96682.22
2022-08-17T02:00:46.778Z,96683.34
2022-08-17T02:04:02.483Z,96675.25
2022-08-17T02:07:04.034Z,96686.84
2022-08-17T02:10:19.998Z,96683.75
2022-08-17T02:13:22.078Z,96698.88
2022-08-17T02:16:23.582Z,96697.72
2022-08-17T02:19:25.124Z,96695.56
2022-08-17T02:22:28.373Z,96696.47
2022-08-17T02:25:32.782Z,96698.03
2022-08-17T02:28:34.364Z,96690.31
2022-08-17T02:31:35.925Z,96692.03
2022-08-17T02:34:37.471Z,96697.84
2022-08-17T02:37:41.931Z,96695.06
2022-08-17T02:40:43.617Z,96698.06
2022-08-17T02:43:46.733Z,96694.56
2022-08-17T02:46:48.293Z,96697.31
2022-08-17T02:49:54.411Z,96695.47
2022-08-17T02:53:01.640Z,96695.88
2022-08-17T02:56:04.393Z,96694.84
2022-08-17T02:59:05.874Z,96697.25
2022-08-17T03:02:10.206Z,96699.22
2022-08-17T03:05:14.707Z,96699.53
2022-08-17T03:08:16.193Z,96702.06
2022-08-17T03:11:17.762Z,96704.03
2022-08-17T03:14:19.362Z,96712.13
2022-08-17T03:17:27.720Z,96715.34
2022-08-17T03:20:31.984Z,96705.88
2022-08-17T03:23:33.653Z,96710.13
2022-08-17T03:26:35.363Z,96717.09
2022-08-17T03:29:36.835Z,96719.81
2022-08-17T03:32:44.761Z,96729.25
2022-08-17T03:35:47.247Z,96723.16
2022-08-17T03:38:48.735Z,96722.03
2022-08-17T03:41:52.640Z,96741.03
2022-08-17T03:44:56.961Z,96732.53
2022-08-17T03:48:17.733Z,96741.91
2022-08-17T03:51:42.579Z,96739.75
2022-08-17T03:55:04.014Z,96757.78
2022-08-17T03:58:05.538Z,96761.53
2022-08-17T04:01:07.211Z,96756.72
2022-08-17T04:04:08.877Z,96749.78
2022-08-17T04:07:10.405Z,96767.56
2022-08-17T04:10:11.901Z,96760.41
2022-08-17T04:13:14.142Z,96763.22
2022-08-17T04:16:15.669Z,96753.75
2022-08-17T04:19:17.167Z,96741.09
2022-08-17T04:22:33.121Z,96759.09
2022-08-17T04:25:40.195Z,96764.25
2022-08-17T04:28:43.389Z,96765.91
2022-08-17T04:31:45.023Z,96773.09
2022-08-17T04:34:46.497Z,96773.66
2022-08-17T04:37:48.466Z,96765.38
2022-08-17T04:41:09.639Z,96767.00
2022-08-17T04:44:12.052Z,96792.66
2022-08-17T04:47:13.997Z,96791.53
2022-08-17T04:50:15.539Z,96793.38
2022-08-17T04:53:18.622Z,96792.56
2022-08-17T04:56:20.241Z,96799.41
2022-08-17T04:59:24.578Z,96795.66
2022-08-17T05:02:26.118Z,96799.50
2022-08-17T05:05:31.398Z,96798.94
2022-08-17T05:08:33.333Z,96804.16
2022-08-17T05:11:35.359Z,96797.44
2022-08-17T05:14:39.046Z,96798.25
2022-08-17T05:17:40.502Z,96795.00
2022-08-17T05:20:42.245Z,96787.00
2022-08-17T05:23:45.489Z,96780.31
2022-08-17T05:26:54.746Z,96775.22
2022-08-17T05:29:57.084Z,96773.78
2022-08-17T05:33:02.238Z,96790.78
2022-08-17T05:36:10.741Z,96794.84
2022-08-17T05:39:32.243Z,96796.75
2022-08-17T05:42:33.737Z,96800.78
2022-08-17T05:45:55.166Z,96800.13
2022-08-17T05:49:02.395Z,96803.31
2022-08-17T05:52:20.674Z,96814.44
2022-08-17T05:55:48.943Z,96797.66
2022-08-17T05:59:03.681Z,96812.38
2022-08-17T06:02:14.520Z,96795.28
2022-08-17T06:05:21.957Z,96809.25
2022-08-17T06:08:42.434Z,96814.94
2022-08-17T06:11:53.646Z,96824.09
2022-08-17T06:15:30.150Z,96828.47
2022-08-17T06:18:40.890Z,96833.03
2022-08-17T06:21:47.630Z,96826.72
2022-08-17T06:25:01.027Z,96830.34
2022-08-17T06:28:14.601Z,96834.19
2022-08-17T06:31:22.208Z,96832.06
2022-08-17T06:34:23.931Z,96833.41
2022-08-17T06:37:45.529Z,96843.91
2022-08-17T06:41:12.478Z,96846.22
2022-08-17T06:44:43.492Z,96850.34
2022-08-17T06:48:00.723Z,96854.38
2022-08-17T06:51:21.607Z,96857.13
2022-08-17T06:54:52.127Z,96842.38
2022-08-17T06:57:59.985Z,96836.31
2022-08-17T07:01:14.766Z,96828.97
2022-08-17T07:04:26.338Z,96819.50
2022-08-17T07:07:47.859Z,96820.19
2022-08-17T07:10:56.541Z,96813.66
2022-08-17T07:14:06.489Z,96806.16
2022-08-17T07:17:14.413Z,96809.81
2022-08-17T07:20:22.379Z,96803.88
2022-08-17T07:23:40.034Z,96801.16
2022-08-17T07:26:41.557Z,96808.22
2022-08-17T07:29:58.209Z,96810.72
2022-08-17T07:33:13.212Z,96812.25
2022-08-17T07:36:29.606Z,96818.00
2022-08-17T07:39:31.708Z,96820.19
2022-08-17T07:42:34.390Z,96821.25
2022-08-17T07:46:27.518Z,96826.31
2022-08-17T07:49:31.879Z,96831.75
2022-08-17T07:52:50.357Z,96834.78
2022-08-17T07:55:53.835Z,96827.69
2022-08-17T07:59:13.642Z,96836.00
2022-08-17T08:02:40.270Z,96841.59
2022-08-17T08:05:52.224Z,96837.25
2022-08-17T08:08:55.602Z,96852.16
2022-08-17T08:11:57.085Z,96851.31
2022-08-17T08:15:02.533Z,96849.63
2022-08-17T08:18:06.642Z,96852.75
2022-08-17T08:21:12.941Z,96860.59
2022-08-17T08:24:23.486Z,96862.56
2022-08-17T08:27:36.144Z,96857.44
2022-08-17T08:30:47.333Z,96860.53
2022-08-17T08:34:58.563Z,96863.09
2022-08-17T08:37:55.600Z,96867.16
2022-08-17T08:41:19.199Z,96869.53
2022-08-17T08:44:59.473Z,96879.69
2022-08-17T08:48:46.030Z,96871.84
2022-08-17T08:51:52.869Z,96871.91
2022-08-17T08:55:05.180Z,96870.03
2022-08-17T08:58:31.497Z,96871.47
2022-08-17T09:01:57.184Z,96878.19
2022-08-17T09:05:17.087Z,96875.50
2022-08-17T09:08:37.526Z,96880.13
2022-08-17T09:12:01.220Z,96868.84
2022-08-17T09:15:17.658Z,96884.56
2022-08-17T09:19:02.934Z,96893.69
2022-08-17T09:21:55.586Z,96891.88
2022-08-17T09:25:15.934Z,96902.97
2022-08-17T09:28:24.008Z,96886.00
2022-08-17T09:31:35.461Z,96901.75
2022-08-17T09:34:57.578Z,96907.22
2022-08-17T09:38:33.974Z,96925.00
2022-08-17T09:41:48.692Z,96924.97
2022-08-17T09:44:56.297Z,96924.31
2022-08-17T09:48:24.403Z,96905.94
2022-08-17T09:51:34.969Z,96894.44
2022-08-17T09:54:40.666Z,96894.81
2022-08-17T09:58:00.431Z,96898.78
2022-08-17T10:01:29.319Z,96910.31
2022-08-17T10:04:57.838Z,96913.44
2022-08-17T10:08:08.586Z,96917.88
2022-08-17T10:12:09.368Z,96909.34
2022-08-17T10:15:36.950Z,96915.69
2022-08-17T10:19:03.270Z,96918.94
2022-08-17T10:22:41.800Z,96925.09
2022-08-17T10:26:04.665Z,96925.75
2022-08-17T10:29:16.803Z,96927.81
2022-08-17T10:32:32.797Z,96933.53
2022-08-17T10:36:17.591Z,96937.78
2022-08-17T10:39:32.236Z,96941.16
2022-08-17T10:42:48.813Z,96950.44
2022-08-17T10:46:26.846Z,96962.53
2022-08-17T10:49:29.468Z,96958.81
2022-08-17T10:52:31.304Z,96943.84
2022-08-17T10:55:32.822Z,96942.53
2022-08-17T10:59:01.047Z,96947.72
2022-08-17T11:02:12.153Z,96947.00
2022-08-17T11:06:05.849Z,96945.00
2022-08-17T11:09:19.888Z,96957.22
2022-08-17T11:12:27.769Z,96965.72
2022-08-17T11:15:41.606Z,96966.16
2022-08-17T11:18:54.091Z,96982.41
2022-08-17T11:22:33.972Z,96986.50
2022-08-17T11:25:56.699Z,96981.81
2022-08-17T11:29:03.606Z,96991.31
2022-08-17T11:32:16.911Z,96996.25
2022-08-17T11:35:21.260Z,96999.78
2022-08-17T11:38:46.027Z,96992.44
2022-08-17T11:42:05.829Z,96985.78
2022-08-17T11:45:07.246Z,96987.19
2022-08-17T11:48:56.999Z,96996.38
2022-08-17T11:52:01.529Z,97010.84
2022-08-17T11:55:33.475Z,97014.25
2022-08-17T11:58:29.167Z,96998.72
2022-08-17T12:01:50.728Z,96989.91
2022-08-17T12:05:12.301Z,96984.63
2022-08-17T12:08:19.791Z,96966.94
2022-08-17T12:12:11.175Z,96961.63
2022-08-17T12:15:10.693Z,96958.41
2022-08-17T12:18:24.986Z,96967.00
2022-08-17T12:21:40.109Z,96965.19
2022-08-17T12:25:10.193Z,96954.09
2022-08-17T12:28:31.746Z,96948.47
2022-08-17T12:31:45.115Z,96926.50
2022-08-17T12:34:47.779Z,96921.06
2022-08-17T12:37:50.538Z,96925.09
2022-08-17T12:40:54.994Z,96921.13
2022-08-17T12:44:12.259Z,96913.47
2022-08-17T12:47:21.819Z,96906.13
2022-08-17T12:50:29.571Z,96903.25
2022-08-17T12:53:35.068Z,96899.81
2022-08-17T12:56:36.657Z,96881.69
2022-08-17T12:59:45.253Z,96868.84
2022-08-17T13:02:59.110Z,96863.44
2022-08-17T13:06:06.842Z,96866.56
2022-08-17T13:09:15.271Z,96865.81
2022-08-17T13:12:33.582Z,96859.56
2022-08-17T13:15:44.470Z,96860.91
2022-08-17T13:18:48.408Z,96856.38
2022-08-17T13:21:56.658Z,96856.38
2022-08-17T13:25:05.316Z,96855.53
2022-08-17T13:28:35.736Z,96852.91
2022-08-17T13:31:47.458Z,96846.53
2022-08-17T13:35:15.085Z,96849.69
2022-08-17T13:38:39.425Z,96849.94
2022-08-17T13:41:40.991Z,96855.75
2022-08-17T13:44:42.662Z,96851.84
2022-08-17T13:47:44.172Z,96858.66
2022-08-17T13:51:05.692Z,96854.66
2022-08-17T13:54:18.866Z,96851.28
2022-08-17T13:57:27.618Z,96841.00
2022-08-17T14:00:33.372Z,96828.06
2022-08-17T14:03:34.928Z,96821.69
2022-08-17T14:06:54.877Z,96814.41
2022-08-17T14:10:05.158Z,96809.94
2022-08-17T14:13:07.655Z,96804.47
2022-08-17T14:16:09.156Z,96791.84
2022-08-17T14:19:12.828Z,96790.66
2022-08-17T14:22:25.707Z,96789.72
2022-08-17T14:25:29.577Z,96784.31
2022-08-17T14:28:32.062Z,96793.97
2022-08-17T14:31:37.521Z,96800.72
2022-08-17T14:34:39.291Z,96803.03
2022-08-17T14:37:41.181Z,96790.56
2022-08-17T14:40:42.982Z,96787.94
2022-08-17T14:43:45.592Z,96781.00
2022-08-17T14:46:48.962Z,96776.88
2022-08-17T14:49:50.780Z,96787.22
2022-08-17T14:52:52.346Z,96798.50
2022-08-17T14:55:54.005Z,96795.41
2022-08-17T14:58:55.858Z,96795.44
2022-08-17T15:01:58.304Z,96792.22
2022-08-17T15:05:04.119Z,96790.38
2022-08-17T15:08:06.339Z,96782.44
2022-08-17T15:11:14.427Z,96792.50
2022-08-17T15:14:16.742Z,96803.22
2022-08-17T15:17:18.325Z,96784.81
2022-08-17T15:20:28.077Z,96782.50
2022-08-17T15:23:29.738Z,96779.19
2022-08-17T15:26:31.602Z,96773.53
2022-08-17T15:29:33.320Z,96774.25
2022-08-17T15:32:38.439Z,96774.13
2022-08-17T15:35:40.529Z,96777.03
2022-08-17T15:38:42.124Z,96774.47
2022-08-17T15:41:47.174Z,96779.25
2022-08-17T15:45:06.605Z,96780.81
2022-08-17T15:48:08.819Z,96772.84
2022-08-17T15:51:26.149Z,96766.50
2022-08-17T15:54:31.732Z,96770.06
2022-08-17T15:57:36.323Z,96777.72
2022-08-17T16:00:53.177Z,96763.00
2022-08-17T16:04:06.520Z,96761.41
2022-08-17T16:07:09.118Z,96764.41
2022-08-17T16:10:13.183Z,96768.16
2022-08-17T16:13:19.169Z,96754.91
2022-08-17T16:16:20.648Z,96747.09
2022-08-17T16:19:22.203Z,96745.25
2022-08-17T16:22:50.406Z,96742.91
2022-08-17T16:25:54.117Z,96742.78
2022-08-17T16:28:57.536Z,96746.28
2022-08-17T16:32:08.649Z,96736.31
2022-08-17T16:35:17.250Z,96741.59
2022-08-17T16:38:19.260Z,96735.22
2022-08-17T16:41:39.622Z,96735.72
2022-08-17T16:44:41.112Z,96732.41
2022-08-17T16:47:42.699Z,96737.22
2022-08-17T16:50:44.193Z,96742.78
2022-08-17T16:54:06.387Z,96739.19
2022-08-17T16:57:07.901Z,96731.13
2022-08-17T17:00:12.951Z,96736.59
2022-08-17T17:03:21.551Z,96724.94
2022-08-17T17:06:40.210Z,96722.00
2022-08-17T17:09:43.888Z,96726.97
2022-08-17T17:13:03.902Z,96731.25
2022-08-17T17:16:17.744Z,96738.78
2022-08-17T17:19:39.080Z,96742.81
2022-08-17T17:22:55.335Z,96734.69
2022-08-17T17:26:11.767Z,96731.47
2022-08-17T17:29:51.424Z,96725.44
2022-08-17T17:33:06.567Z,96722.34
2022-08-17T17:36:13.314Z,96724.16
2022-08-17T17:39:25.948Z,96720.03
2022-08-17T17:42:31.776Z,96719.94
2022-08-17T17:45:40.805Z,96708.09
2022-08-17T17:48:42.290Z,96713.13
2022-08-17T17:52:09.264Z,96714.00
2022-08-17T17:55:25.097Z,96716.59
2022-08-17T17:58:44.089Z,96716.06
2022-08-17T18:02:34.475Z,96707.38
2022-08-17T18:06:16.181Z,96719.47
2022-08-17T18:10:01.341Z,96716.31
2022-08-17T18:13:28.209Z,96710.97
2022-08-17T18:16:32.786Z,96720.69
2022-08-17T18:19:39.830Z,96717.84
2022-08-17T18:22:41.338Z,96712.16
2022-08-17T18:25:49.242Z,96721.56
2022-08-17T18:28:51.759Z,96728.53
2022-08-17T18:32:11.987Z,96724.97
2022-08-17T18:35:16.453Z,96733.75
2022-08-17T18:38:31.231Z,96729.22
2022-08-17T18:41:40.516Z,96735.84
2022-08-17T18:44:44.518Z,96732.19
2022-08-17T18:47:54.609Z,96737.69
2022-08-17T18:51:04.963Z,96742.19
2022-08-17T18:54:22.649Z,96750.69
2022-08-17T18:57:37.735Z,96759.50
2022-08-17T19:00:42.537Z,96768.97
2022-08-17T19:03:46.557Z,96778.63
2022-08-17T19:07:03.514Z,96787.75
2022-08-17T19:10:23.503Z,96788.50
2022-08-17T19:13:31.222Z,96789.41
2022-08-17T19:16:43.443Z,96777.94
2022-08-17T19:20:02.152Z,96779.28
2022-08-17T19:23:24.238Z,96773.78
2022-08-17T19:26:53.637Z,96767.84
2022-08-17T19:30:07.506Z,96773.47
2022-08-17T19:33:09.807Z,96763.66
2022-08-17T19:36:22.442Z,96756.75
2022-08-17T19:39:50.418Z,96756.44
2022-08-17T19:43:02.733Z,96762.03
2022-08-17T19:46:36.897Z,96770.41
2022-08-17T19:49:54.222Z,96776.84
2022-08-17T19:53:14.652Z,96770.31
2022-08-17T19:56:28.689Z,96757.69
2022-08-17T20:00:04.703Z,96756.19
2022-08-17T20:03:24.157Z,96751.94
2022-08-17T20:06:28.715Z,96759.75
2022-08-17T20:10:02.381Z,96772.94
2022-08-17T20:13:20.103Z,96773.00
2022-08-17T20:16:35.274Z,96770.00
2022-08-17T20:19:51.988Z,96769.00
2022-08-17T20:23:04.676Z,96774.13
2022-08-17T20:26:26.926Z,96767.75
2022-08-17T20:29:40.190Z,96771.84
2022-08-17T20:32:48.398Z,96767.25
2022-08-17T20:36:03.335Z,96778.56
2022-08-17T20:39:04.880Z,96780.78
2022-08-17T20:42:28.082Z,96776.34
2022-08-17T20:45:58.030Z,96774.91
2022-08-17T20:49:08.678Z,96790.34
2022-08-17T20:52:13.684Z,96798.69
2022-08-17T20:55:34.224Z,96799.16
2022-08-17T20:58:42.145Z,96807.44
2022-08-17T21:02:06.650Z,96814.41
2022-08-17T21:06:00.739Z,96824.84
2022-08-17T21:09:16.081Z,96832.72
2022-08-17T21:12:47.730Z,96830.81
2022-08-17T21:15:58.811Z,96817.97
2022-08-17T21:19:17.505Z,96826.53
2022-08-17T21:22:28.543Z,96838.22
2022-08-17T21:26:10.142Z,96838.59
2022-08-17T21:29:31.396Z,96846.09
2022-08-17T21:32:37.522Z,96862.34
2022-08-17T21:36:16.389Z,96867.75
2022-08-17T21:39:30.588Z,96898.59
2022-08-17T21:42:36.106Z,96908.38
2022-08-17T21:45:42.790Z,96925.44
2022-08-17T21:48:48.311Z,96939.00
2022-08-17T21:51:53.800Z,96937.13
2022-08-17T21:55:02.332Z,96943.56
2022-08-17T21:58:27.174Z,96963.56
2022-08-17T22:01:42.854Z,96985.03
2022-08-17T22:04:56.512Z,97008.94
2022-08-17T22:08:23.561Z,97013.00
2022-08-17T22:11:25.075Z,97009.88
2022-08-17T22:14:51.458Z,97020.84
2022-08-17T22:17:55.739Z,97020.81
2022-08-17T22:21:01.750Z,97028.28
2022-08-17T22:24:15.150Z,97032.25
2022-08-17T22:27:18.715Z,97037.88
2022-08-17T22:30:54.819Z,97042.66
2022-08-17T22:34:02.050Z,97057.00
2022-08-17T22:37:28.953Z,97071.63
2022-08-17T22:40:34.365Z,97071.25
2022-08-17T22:43:38.496Z,97075.78
2022-08-17T22:46:50.542Z,97076.50
2022-08-17T22:49:59.033Z,97081.06
2022-08-17T22:53:28.847Z,97072.63
2022-08-17T22:56:49.215Z,97087.94
2022-08-17T22:59:55.553Z,97096.44
2022-08-17T23:03:18.467Z,97090.19
2022-08-17T23:06:20.051Z,97102.53
2022-08-17T23:09:21.966Z,97100.78
2022-08-17T23:12:27.353Z,97106.97
2022-08-17T23:15:30.592Z,97097.25
2022-08-17T23:18:32.087Z,97103.97
2022-08-17T23:21:33.747Z,97114.22
2022-08-17T23:24:45.956Z,97108.34
2022-08-17T23:27:47.711Z,97093.78
2022-08-17T23:30:49.420Z,97093.13
2022-08-17T23:33:51.113Z,97099.63
2022-08-17T23:36:53.078Z,97098.19
2022-08-17T23:39:54.706Z,97107.63
2022-08-17T23:42:56.250Z,97117.53
2022-08-17T23:46:00.675Z,97114.81
2022-08-17T23:49:03.204Z,97103.38
2022-08-17T23:52:12.547Z,97100.53
2022-08-17T23:55:16.826Z,97099.03
2022-08-17T23:58:18.475Z,97098.00
